Time;durP1;ratioP1;P1;durP2;ratioP2;P2;SDS_P1;SDS_P2;PMS_P1;PMS_P2;Temp;Humidity;BMP_temperature;BMP_pressure;BME280_temperature;BME280_humidity;BME280_pressure;Samples;Min_cycle;Max_cycle;Signal;HPM_P1;HPM_P2
2022/09/10 00:01:46;;;;;;;;;;;;;;;16.24;100.00;98692.11;105160;1270;61376;-69
2022/09/10 00:04:13;;;;;;;;;;;;;;;16.24;100.00;98686.96;105116;1270;61606;-69
2022/09/10 00:06:40;;;;;;;;;;;;;;;16.23;100.00;98681.13;105125;1270;61314;-69
2022/09/10 00:09:07;;;;;;;;;;;;;;;16.20;100.00;98676.61;104907;1271;61458;-70
2022/09/10 00:11:34;;;;;;;;;;;;;;;16.18;100.00;98671.58;105009;1270;62019;-70
2022/09/10 00:14:01;;;;;;;;;;;;;;;16.18;100.00;98677.09;105109;1270;61372;-70
2022/09/10 00:16:28;;;;;;;;;;;;;;;16.18;100.00;98679.79;105125;1270;76113;-70
2022/09/10 00:18:56;;;;;;;;;;;;;;;16.19;100.00;98682.59;105098;1270;69735;-70
2022/09/10 00:21:21;;;;;;;;;;;;;;;16.19;100.00;98682.95;105129;1270;73703;-70
2022/09/10 00:23:49;;;;;;;;;;;;;;;16.18;100.00;98688.79;105119;1270;61376;-70
2022/09/10 00:26:15;;;;;;;;;;;;;;;16.17;100.00;98689.08;104934;1271;61690;-70
2022/09/10 00:28:41;;;;;;;;;;;;;;;16.15;100.00;98687.61;105127;1270;61295;-70
2022/09/10 00:31:08;;;;;;;;;;;;;;;16.14;100.00;98681.80;105157;1270;61351;-70
2022/09/10 00:33:33;;;;;;;;;;;;;;;16.14;100.00;98675.03;105089;1270;61429;-69
2022/09/10 00:35:59;;;;;;;;;;;;;;;16.14;100.00;98676.98;105078;1270;61395;-68
2022/09/10 00:38:30;;;;;;;;;;;;;;;16.14;100.00;98683.23;105122;1270;61261;-69
2022/09/10 00:41:07;;;;;;;;;;;;;;;16.12;100.00;98688.66;104963;1270;75425;-70
2022/09/10 00:43:51;;;;;;;;;;;;;;;16.07;100.00;98690.34;105118;1270;69363;-69
2022/09/10 00:46:35;;;;;;;;;;;;;;;16.03;100.00;98695.56;105059;1270;72743;-69
2022/09/10 00:49:05;;;;;;;;;;;;;;;16.00;100.00;98692.98;105144;1270;61282;-69
2022/09/10 00:51:33;;;;;;;;;;;;;;;15.98;100.00;98698.16;105127;1270;61758;-70
2022/09/10 00:54:01;;;;;;;;;;;;;;;15.95;100.00;98698.05;105237;1270;76351;-70
2022/09/10 00:56:28;;;;;;;;;;;;;;;15.94;100.00;98698.26;104936;1270;69443;-69
2022/09/10 00:58:54;;;;;;;;;;;;;;;15.92;100.00;98703.78;104935;1270;61288;-70
2022/09/10 01:01:21;;;;;;;;;;;;;;;15.90;100.00;98703.61;104996;1270;61351;-70
2022/09/10 01:03:48;;;;;;;;;;;;;;;15.88;100.00;98708.61;105230;1270;61388;-71
2022/09/10 01:06:14;;;;;;;;;;;;;;;15.88;100.00;98716.02;105266;1270;76422;-69
2022/09/10 01:08:40;;;;;;;;;;;;;;;15.87;100.00;98717.70;105254;1270;61282;-70
2022/09/10 01:11:29;;;;;;;;;;;;;;;15.87;100.00;98718.24;105234;1270;61245;-70
2022/09/10 01:13:58;;;;;;;;;;;;;;;15.86;100.00;98712.80;105151;1270;61360;-70
2022/09/10 01:16:37;;;;;;;;;;;;;;;15.85;100.00;98705.86;105104;1270;61277;-70
2022/09/10 01:19:03;;;;;;;;;;;;;;;15.84;100.00;98695.25;105084;1270;76636;-70
2022/09/10 01:21:38;;;;;;;;;;;;;;;15.83;100.00;98690.69;104922;1270;61362;-70
2022/09/10 01:24:14;;;;;;;;;;;;;;;15.82;100.00;98683.59;105105;1270;74461;-70
2022/09/10 01:26:40;;;;;;;;;;;;;;;15.81;100.00;98689.38;105130;1270;61374;-70
2022/09/10 01:29:15;;;;;;;;;;;;;;;15.78;100.00;98690.59;105151;1270;61405;-70
2022/09/10 01:31:52;;;;;;;;;;;;;;;15.75;100.00;98692.77;105168;1270;75501;-71
2022/09/10 01:34:18;;;;;;;;;;;;;;;15.73;100.00;98688.56;105289;1270;69614;-69
2022/09/10 01:36:49;;;;;;;;;;;;;;;15.69;100.00;98684.42;105110;1270;61386;-70
2022/09/10 01:39:17;;;;;;;;;;;;;;;15.65;100.00;98676.00;105139;1270;61283;-70
2022/09/10 01:41:43;;;;;;;;;;;;;;;15.62;100.00;98676.47;105134;1270;62286;-70
2022/09/10 01:44:12;;;;;;;;;;;;;;;15.58;100.00;98672.70;105109;1270;61417;-70
2022/09/10 01:46:48;;;;;;;;;;;;;;;15.54;100.00;98673.81;105274;1270;70562;-70
2022/09/10 01:49:35;;;;;;;;;;;;;;;15.51;100.00;98678.34;105112;1270;72694;-70
2022/09/10 01:52:24;;;;;;;;;;;;;;;15.50;100.00;98681.16;104970;1270;61330;-70
2022/09/10 01:54:59;;;;;;;;;;;;;;;15.47;100.00;98685.52;105143;1270;61983;-69
2022/09/10 01:57:28;;;;;;;;;;;;;;;15.44;100.00;98677.37;105115;1270;75282;-70
2022/09/10 01:59:53;;;;;;;;;;;;;;;15.43;100.00;98677.54;105076;1270;68993;-69
2022/09/10 02:02:22;;;;;;;;;;;;;;;15.40;100.00;98670.44;105077;1270;61330;-69
2022/09/10 02:04:50;;;;;;;;;;;;;;;15.37;100.00;98663.52;105067;1270;61266;-71
2022/09/10 02:07:18;;;;;;;;;;;;;;;15.34;100.00;98650.89;104867;1270;61326;-69
2022/09/10 02:09:44;;;;;;;;;;;;;;;15.33;100.00;98646.36;105086;1270;76713;-72
2022/09/10 02:12:17;;;;;;;;;;;;;;;15.31;100.00;98643.82;105139;1270;61278;-71
2022/09/10 02:14:45;;;;;;;;;;;;;;;15.29;100.00;98644.98;105079;1270;73994;-70
2022/09/10 02:17:11;;;;;;;;;;;;;;;15.28;100.00;98643.11;105012;1271;61474;-71
2022/09/10 02:19:37;;;;;;;;;;;;;;;15.26;100.00;98635.52;105120;1270;61413;-71
2022/09/10 02:22:03;;;;;;;;;;;;;;;15.25;100.00;98633.98;105125;1270;61345;-71
2022/09/10 02:24:29;;;;;;;;;;;;;;;15.24;100.00;98631.08;105103;1270;61321;-71
2022/09/10 02:26:55;;;;;;;;;;;;;;;15.23;100.00;98631.70;105110;1270;61376;-70
2022/09/10 02:29:22;;;;;;;;;;;;;;;15.24;100.00;98635.18;105135;1270;61340;-70
2022/09/10 02:31:48;;;;;;;;;;;;;;;15.24;100.00;98636.95;105176;1270;61156;-70
2022/09/10 02:34:17;;;;;;;;;;;;;;;15.25;100.00;98634.95;105069;1270;61398;-72
2022/09/10 02:36:42;;;;;;;;;;;;;;;15.24;100.00;98635.37;105130;1270;61358;-69
2022/09/10 02:39:08;;;;;;;;;;;;;;;15.24;100.00;98631.58;105014;1270;61375;-70
2022/09/10 02:41:36;;;;;;;;;;;;;;;15.25;100.00;98625.29;105077;1270;61294;-70
2022/09/10 02:44:03;;;;;;;;;;;;;;;15.26;100.00;98626.10;105124;1269;61352;-70
2022/09/10 02:46:29;;;;;;;;;;;;;;;15.27;100.00;98632.98;105075;1270;61699;-70
2022/09/10 02:48:55;;;;;;;;;;;;;;;15.27;100.00;98644.07;105090;1270;61381;-70
2022/09/10 02:51:22;;;;;;;;;;;;;;;15.27;100.00;98653.17;104975;1270;61321;-69
2022/09/10 02:53:48;;;;;;;;;;;;;;;15.27;100.00;98664.59;105094;1270;61533;-70
2022/09/10 02:56:15;;;;;;;;;;;;;;;15.28;100.00;98667.79;105093;1270;61390;-70
2022/09/10 02:58:41;;;;;;;;;;;;;;;15.29;100.00;98668.71;105112;1270;61307;-71
2022/09/10 03:01:08;;;;;;;;;;;;;;;15.31;100.00;98669.83;105087;1270;61424;-70
2022/09/10 03:03:35;;;;;;;;;;;;;;;15.32;100.00;98667.58;105075;1270;61278;-70
2022/09/10 03:06:01;;;;;;;;;;;;;;;15.32;100.00;98670.95;105247;1270;61354;-70
2022/09/10 03:08:27;;;;;;;;;;;;;;;15.33;100.00;98674.67;105167;1270;61252;-70
2022/09/10 03:10:55;;;;;;;;;;;;;;;15.34;100.00;98675.23;105139;1270;61388;-70
2022/09/10 03:13:21;;;;;;;;;;;;;;;15.33;100.00;98673.52;105157;1270;61327;-70
2022/09/10 03:15:47;;;;;;;;;;;;;;;15.33;100.00;98679.50;105175;1270;61356;-70
2022/09/10 03:18:14;;;;;;;;;;;;;;;15.33;100.00;98681.41;105154;1270;61351;-70
2022/09/10 03:20:40;;;;;;;;;;;;;;;15.34;100.00;98684.72;105139;1270;61176;-69
2022/09/10 03:23:07;;;;;;;;;;;;;;;15.35;100.00;98686.48;105021;1272;61425;-70
2022/09/10 03:25:34;;;;;;;;;;;;;;;15.35;100.00;98681.98;105040;1270;61287;-69
2022/09/10 03:28:00;;;;;;;;;;;;;;;15.34;100.00;98672.53;105158;1270;61361;-69
2022/09/10 03:30:25;;;;;;;;;;;;;;;15.34;100.00;98672.54;105043;1270;62818;-70
2022/09/10 03:32:53;;;;;;;;;;;;;;;15.35;100.00;98670.90;105051;1270;61362;-70
2022/09/10 03:35:19;;;;;;;;;;;;;;;15.35;100.00;98669.07;105083;1270;61286;-69
2022/09/10 03:37:45;;;;;;;;;;;;;;;15.36;100.00;98665.55;104922;1270;61348;-69
2022/09/10 03:40:11;;;;;;;;;;;;;;;15.37;100.00;98660.15;105067;1270;61360;-70
2022/09/10 03:42:37;;;;;;;;;;;;;;;15.36;100.00;98663.64;105108;1270;61331;-70
2022/09/10 03:45:03;;;;;;;;;;;;;;;15.33;100.00;98655.30;105093;1270;61279;-70
2022/09/10 03:47:30;;;;;;;;;;;;;;;15.32;100.00;98654.17;105113;1270;61362;-70
2022/09/10 03:49:57;;;;;;;;;;;;;;;15.30;100.00;98648.09;105096;1270;61358;-70
2022/09/10 03:52:25;;;;;;;;;;;;;;;15.28;100.00;98648.40;105159;1270;61378;-70
2022/09/10 03:54:51;;;;;;;;;;;;;;;15.27;100.00;98646.02;105043;1270;61482;-70
2022/09/10 03:57:17;;;;;;;;;;;;;;;15.24;100.00;98643.83;105149;1270;61354;-70
2022/09/10 03:59:44;;;;;;;;;;;;;;;15.21;100.00;98640.89;105067;1270;61335;-70
2022/09/10 04:02:10;;;;;;;;;;;;;;;15.18;100.00;98633.95;105091;1270;61352;-70
2022/09/10 04:04:36;;;;;;;;;;;;;;;15.17;100.00;98633.23;105082;1270;61318;-71
2022/09/10 04:07:03;;;;;;;;;;;;;;;15.16;100.00;98632.91;105096;1270;61352;-71
2022/09/10 04:09:31;;;;;;;;;;;;;;;15.13;100.00;98636.42;105124;1270;61374;-71
2022/09/10 04:11:57;;;;;;;;;;;;;;;15.10;100.00;98641.68;105027;1270;61329;-70
2022/09/10 04:14:23;;;;;;;;;;;;;;;15.08;100.00;98645.24;105073;1270;61378;-70
2022/09/10 04:16:49;;;;;;;;;;;;;;;15.08;100.00;98648.44;105105;1269;61503;-70
2022/09/10 04:19:15;;;;;;;;;;;;;;;15.08;100.00;98652.20;105089;1270;61345;-70
2022/09/10 04:21:41;;;;;;;;;;;;;;;15.07;100.00;98652.12;105108;1270;61361;-71
2022/09/10 04:24:10;;;;;;;;;;;;;;;15.06;100.00;98657.81;105192;1270;61279;-71
2022/09/10 04:26:36;;;;;;;;;;;;;;;15.04;100.00;98658.33;104950;1271;61333;-70
2022/09/10 04:29:02;;;;;;;;;;;;;;;15.03;100.00;98658.43;105104;1270;61311;-70
2022/09/10 04:31:28;;;;;;;;;;;;;;;15.01;100.00;98654.09;105117;1270;61378;-71
2022/09/10 04:33:54;;;;;;;;;;;;;;;15.02;100.00;98651.68;105113;1270;61390;-71
2022/09/10 04:36:20;;;;;;;;;;;;;;;15.02;100.00;98646.55;105062;1270;61274;-71
2022/09/10 04:38:46;;;;;;;;;;;;;;;15.01;100.00;98643.95;105092;1270;61465;-71
2022/09/10 04:41:14;;;;;;;;;;;;;;;15.01;100.00;98639.05;105097;1270;61381;-70
2022/09/10 04:43:40;;;;;;;;;;;;;;;15.01;100.00;98635.89;105008;1270;62896;-70
2022/09/10 04:46:06;;;;;;;;;;;;;;;15.02;100.00;98635.41;105095;1270;61381;-70
2022/09/10 04:48:32;;;;;;;;;;;;;;;15.03;100.00;98627.80;105059;1270;61367;-70
2022/09/10 04:50:58;;;;;;;;;;;;;;;15.04;100.00;98622.39;105100;1270;61331;-68
2022/09/10 04:53:26;;;;;;;;;;;;;;;15.04;100.00;98616.30;105088;1270;61372;-69
2022/09/10 04:55:53;;;;;;;;;;;;;;;15.03;100.00;98614.09;105172;1270;61317;-71
2022/09/10 04:58:20;;;;;;;;;;;;;;;15.01;100.00;98614.80;104968;1271;61353;-70
2022/09/10 05:00:46;;;;;;;;;;;;;;;14.98;100.00;98610.90;105073;1270;61302;-71
2022/09/10 05:03:13;;;;;;;;;;;;;;;14.98;100.00;98608.41;105146;1270;61280;-70
2022/09/10 05:05:41;;;;;;;;;;;;;;;14.98;100.00;98607.70;105166;1270;61325;-70
2022/09/10 05:08:08;;;;;;;;;;;;;;;14.98;100.00;98606.42;105129;1270;61327;-70
2022/09/10 05:10:35;;;;;;;;;;;;;;;15.00;100.00;98611.68;105153;1270;61282;-70
2022/09/10 05:13:01;;;;;;;;;;;;;;;15.00;100.00;98605.38;105218;1270;76366;-70
2022/09/10 05:15:27;;;;;;;;;;;;;;;15.02;100.00;98606.12;105072;1270;61352;-70
2022/09/10 05:17:54;;;;;;;;;;;;;;;15.04;100.00;98602.19;105102;1270;61426;-70
2022/09/10 05:20:21;;;;;;;;;;;;;;;15.05;100.00;98606.01;105101;1270;61333;-70
2022/09/10 05:22:47;;;;;;;;;;;;;;;15.06;100.00;98606.58;104845;1270;61560;-70
2022/09/10 05:25:14;;;;;;;;;;;;;;;15.08;100.00;98610.55;104988;1268;61471;-71
2022/09/10 05:27:41;;;;;;;;;;;;;;;15.10;100.00;98613.33;105124;1270;69227;-70
2022/09/10 05:30:08;;;;;;;;;;;;;;;15.14;100.00;98607.82;105099;1270;61354;-71
2022/09/10 05:32:34;;;;;;;;;;;;;;;15.15;100.00;98608.67;105140;1270;61480;-72
2022/09/10 05:35:00;;;;;;;;;;;;;;;15.13;100.00;98613.08;105122;1270;61295;-71
2022/09/10 05:37:26;;;;;;;;;;;;;;;15.13;100.00;98609.73;105137;1270;61282;-71
2022/09/10 05:39:52;;;;;;;;;;;;;;;15.17;100.00;98615.52;105081;1270;61335;-71
2022/09/10 05:42:20;;;;;;;;;;;;;;;15.19;100.00;98611.46;105128;1270;61374;-70
2022/09/10 05:44:46;;;;;;;;;;;;;;;15.22;100.00;98615.16;105213;1270;61285;-70
2022/09/10 05:47:12;;;;;;;;;;;;;;;15.25;100.00;98614.91;105103;1270;61326;-71
2022/09/10 05:49:38;;;;;;;;;;;;;;;15.28;100.00;98616.08;105023;1270;61374;-71
2022/09/10 05:52:04;;;;;;;;;;;;;;;15.31;100.00;98616.30;105119;1270;61291;-71
2022/09/10 05:54:30;;;;;;;;;;;;;;;15.34;100.00;98617.05;105068;1270;61386;-71
2022/09/10 05:56:57;;;;;;;;;;;;;;;15.40;100.00;98619.29;105102;1270;61413;-71
2022/09/10 05:59:24;;;;;;;;;;;;;;;15.43;100.00;98617.02;105141;1270;61382;-71
2022/09/10 06:01:50;;;;;;;;;;;;;;;15.47;100.00;98614.64;105156;1270;61264;-71
2022/09/10 06:04:20;;;;;;;;;;;;;;;15.52;100.00;98615.23;105153;1270;61376;-71
2022/09/10 06:06:49;;;;;;;;;;;;;;;15.58;100.00;98612.20;105137;1270;74326;-71
2022/09/10 06:09:15;;;;;;;;;;;;;;;15.64;100.00;98610.94;105166;1270;61300;-71
2022/09/10 06:11:41;;;;;;;;;;;;;;;15.68;100.00;98605.36;105156;1270;61401;-71
2022/09/10 06:14:07;;;;;;;;;;;;;;;15.74;100.00;98599.11;105168;1270;61313;-71
2022/09/10 06:16:33;;;;;;;;;;;;;;;15.80;100.00;98597.28;105091;1270;61296;-71
2022/09/10 06:18:59;;;;;;;;;;;;;;;15.84;100.00;98593.82;105026;1270;61418;-70
2022/09/10 06:21:26;;;;;;;;;;;;;;;15.91;100.00;98591.92;103980;1270;1586285;-70
2022/09/10 06:23:53;;;;;;;;;;;;;;;15.96;100.00;98591.90;105116;1270;61257;-70
2022/09/10 06:26:19;;;;;;;;;;;;;;;16.00;100.00;98594.96;105138;1270;61377;-71
2022/09/10 06:28:45;;;;;;;;;;;;;;;16.03;100.00;98593.95;105153;1270;61391;-70
2022/09/10 06:31:16;;;;;;;;;;;;;;;16.07;100.00;98590.17;105109;1270;61146;-70
2022/09/10 06:33:46;;;;;;;;;;;;;;;16.13;100.00;98586.21;105135;1270;61354;-70
2022/09/10 06:36:12;;;;;;;;;;;;;;;16.19;100.00;98580.98;105129;1270;61269;-71
2022/09/10 06:38:39;;;;;;;;;;;;;;;16.23;100.00;98584.31;105248;1270;61295;-70
2022/09/10 06:41:10;;;;;;;;;;;;;;;16.28;100.00;98589.20;105263;1270;68649;-72
2022/09/10 06:43:37;;;;;;;;;;;;;;;16.35;100.00;98589.31;105176;1270;74261;-71
2022/09/10 06:46:12;;;;;;;;;;;;;;;16.37;100.00;98591.00;105133;1270;61372;-71
2022/09/10 06:48:39;;;;;;;;;;;;;;;16.39;100.00;98584.77;105173;1270;61233;-71
2022/09/10 06:51:06;;;;;;;;;;;;;;;16.40;100.00;98581.59;105151;1270;76295;-71
2022/09/10 06:53:34;;;;;;;;;;;;;;;16.46;100.00;98575.70;105178;1270;69373;-71
2022/09/10 06:56:00;;;;;;;;;;;;;;;16.50;100.00;98572.42;105232;1270;75153;-71
2022/09/10 06:58:27;;;;;;;;;;;;;;;16.54;100.00;98571.86;105136;1270;61400;-71
2022/09/10 07:00:54;;;;;;;;;;;;;;;16.59;100.00;98569.84;105180;1270;61534;-72
2022/09/10 07:03:20;;;;;;;;;;;;;;;16.64;100.00;98570.29;105229;1270;75886;-69
2022/09/10 07:05:47;;;;;;;;;;;;;;;16.68;100.00;98572.41;105081;1270;61314;-71
2022/09/10 07:08:14;;;;;;;;;;;;;;;16.72;100.00;98576.33;105229;1270;61270;-70
2022/09/10 07:10:41;;;;;;;;;;;;;;;16.75;100.00;98578.01;105149;1270;61294;-71
2022/09/10 07:13:07;;;;;;;;;;;;;;;16.79;100.00;98578.29;105104;1270;61183;-70
2022/09/10 07:15:34;;;;;;;;;;;;;;;16.87;100.00;98581.84;105454;1270;61261;-71
2022/09/10 07:17:59;;;;;;;;;;;;;;;16.95;100.00;98585.58;105083;1270;61401;-71
2022/09/10 07:20:27;;;;;;;;;;;;;;;16.99;100.00;98585.09;105102;1270;61290;-70
2022/09/10 07:22:55;;;;;;;;;;;;;;;17.08;100.00;98585.86;105377;1269;61295;-70
2022/09/10 07:25:22;;;;;;;;;;;;;;;17.18;100.00;98582.73;105243;1270;61365;-70
2022/09/10 07:27:49;;;;;;;;;;;;;;;17.28;100.00;98590.63;104918;1271;74461;-70
2022/09/10 07:30:16;;;;;;;;;;;;;;;17.36;100.00;98588.04;105132;1270;70748;-70
2022/09/10 07:32:45;;;;;;;;;;;;;;;17.42;100.00;98584.98;105188;1270;73916;-71
2022/09/10 07:35:12;;;;;;;;;;;;;;;17.48;100.00;98589.15;105209;1270;61384;-69
2022/09/10 07:37:38;;;;;;;;;;;;;;;17.55;100.00;98591.29;105134;1269;61355;-71
2022/09/10 07:40:07;;;;;;;;;;;;;;;17.62;100.00;98589.75;105142;1270;61385;-71
2022/09/10 07:42:34;;;;;;;;;;;;;;;17.65;100.00;98592.63;105149;1270;69520;-70
2022/09/10 07:45:00;;;;;;;;;;;;;;;17.67;100.00;98593.35;105104;1270;74587;-71
2022/09/10 07:47:26;;;;;;;;;;;;;;;17.65;100.00;98596.98;105142;1270;61369;-70
2022/09/10 07:49:52;;;;;;;;;;;;;;;17.61;100.00;98599.38;105149;1270;61308;-70
2022/09/10 07:52:17;;;;;;;;;;;;;;;17.59;100.00;98600.70;105123;1270;61268;-70
2022/09/10 07:54:44;;;;;;;;;;;;;;;17.53;100.00;98606.46;105106;1270;61377;-69
2022/09/10 07:57:10;;;;;;;;;;;;;;;17.50;100.00;98602.77;105110;1270;61359;-69
2022/09/10 07:59:35;;;;;;;;;;;;;;;17.49;100.00;98603.77;105106;1268;61367;-69
2022/09/10 08:02:02;;;;;;;;;;;;;;;17.49;100.00;98613.64;105163;1270;61355;-70
2022/09/10 08:04:31;;;;;;;;;;;;;;;17.53;100.00;98612.35;105250;1270;69392;-69
2022/09/10 08:06:57;;;;;;;;;;;;;;;17.58;100.00;98615.85;104982;1270;73430;-69
2022/09/10 08:09:24;;;;;;;;;;;;;;;17.64;100.00;98617.52;104953;1270;61318;-71
2022/09/10 08:11:50;;;;;;;;;;;;;;;17.69;100.00;98619.86;105175;1270;61354;-70
2022/09/10 08:14:16;;;;;;;;;;;;;;;17.77;100.00;98623.98;105138;1270;61273;-71
2022/09/10 08:16:42;;;;;;;;;;;;;;;17.85;100.00;98628.08;105105;1270;61373;-70
2022/09/10 08:19:08;;;;;;;;;;;;;;;17.88;100.00;98628.98;105099;1270;61285;-70
2022/09/10 08:21:35;;;;;;;;;;;;;;;17.83;100.00;98632.85;105110;1270;61413;-70
2022/09/10 08:24:02;;;;;;;;;;;;;;;17.82;100.00;98632.46;105138;1270;61284;-70
2022/09/10 08:26:28;;;;;;;;;;;;;;;17.82;100.00;98633.92;105153;1270;61364;-70
2022/09/10 08:28:55;;;;;;;;;;;;;;;17.80;100.00;98636.42;105198;1270;61287;-70
2022/09/10 08:31:23;;;;;;;;;;;;;;;17.86;100.00;98633.17;105132;1270;61758;-71
2022/09/10 08:33:50;;;;;;;;;;;;;;;17.99;100.00;98637.48;105104;1270;61305;-70
2022/09/10 08:36:17;;;;;;;;;;;;;;;18.21;100.00;98635.35;105148;1270;61360;-70
2022/09/10 08:38:44;;;;;;;;;;;;;;;18.48;100.00;98634.23;105124;1270;75497;-70
2022/09/10 08:41:31;;;;;;;;;;;;;;;18.64;100.00;98630.38;105241;1270;69684;-70
2022/09/10 08:44:09;;;;;;;;;;;;;;;18.71;100.00;98633.77;105125;1270;73329;-72
2022/09/10 08:46:39;;;;;;;;;;;;;;;18.80;100.00;98632.04;105099;1270;61253;-70
2022/09/10 08:49:24;;;;;;;;;;;;;;;18.95;100.00;98632.48;105163;1270;62261;-71
2022/09/10 08:51:54;;;;;;;;;;;;;;;19.17;100.00;98631.17;105034;1270;76051;-71
2022/09/10 08:54:24;;;;;;;;;;;;;;;19.33;100.00;98627.85;105155;1270;70303;-70
2022/09/10 08:56:52;;;;;;;;;;;;;;;19.41;100.00;98625.69;105127;1270;74488;-70
2022/09/10 08:59:25;;;;;;;;;;;;;;;19.55;100.00;98621.11;105073;1272;61562;-71
2022/09/10 09:01:58;;;;;;;;;;;;;;;19.77;100.00;98615.64;105166;1270;61372;-71
2022/09/10 09:04:27;;;;;;;;;;;;;;;19.98;100.00;98608.04;105146;1270;76481;-70
2022/09/10 09:06:57;;;;;;;;;;;;;;;20.25;100.00;98602.41;105000;1270;69331;-70
2022/09/10 09:09:24;;;;;;;;;;;;;;;20.64;100.00;98608.64;105073;1270;73544;-70
2022/09/10 09:11:55;;;;;;;;;;;;;;;21.03;100.00;98608.35;105122;1270;61372;-70
2022/09/10 09:14:29;;;;;;;;;;;;;;;21.31;100.00;98608.27;105108;1270;61248;-70
2022/09/10 09:17:04;;;;;;;;;;;;;;;21.68;100.00;98607.25;105008;1273;76202;-70
2022/09/10 09:19:39;;;;;;;;;;;;;;;21.92;100.00;98608.34;105137;1270;69392;-70
2022/09/10 09:22:11;;;;;;;;;;;;;;;22.24;100.00;98610.02;105156;1270;73621;-70
2022/09/10 09:24:38;;;;;;;;;;;;;;;22.40;100.00;98608.23;105090;1270;61493;-70
2022/09/10 09:27:08;;;;;;;;;;;;;;;22.54;100.00;98610.91;105169;1270;61172;-70
2022/09/10 09:29:39;;;;;;;;;;;;;;;22.54;100.00;98616.57;104972;1270;75186;-69
2022/09/10 09:32:06;;;;;;;;;;;;;;;22.57;100.00;98615.11;105087;1270;69213;-69
2022/09/10 09:34:40;;;;;;;;;;;;;;;22.51;100.00;98612.79;105124;1270;61404;-71
2022/09/10 09:37:22;;;;;;;;;;;;;;;22.26;100.00;98617.83;104966;1271;61354;-70
2022/09/10 09:39:51;;;;;;;;;;;;;;;22.06;100.00;98617.54;105102;1270;61360;-71
2022/09/10 09:42:20;;;;;;;;;;;;;;;21.83;100.00;98611.23;105192;1270;76733;-71
2022/09/10 09:45:03;;;;;;;;;;;;;;;21.62;100.00;98610.98;104993;1271;70368;-71
2022/09/10 09:47:32;;;;;;;;;;;;;;;21.22;100.00;98612.79;105112;1270;74517;-71
2022/09/10 09:49:59;;;;;;;;;;;;;;;20.95;100.00;98610.48;105125;1270;61304;-71
2022/09/10 09:52:27;;;;;;;;;;;;;;;20.74;100.00;98610.23;105129;1270;61207;-70
2022/09/10 09:54:56;;;;;;;;;;;;;;;20.55;100.00;98608.99;105126;1270;74103;-70
2022/09/10 09:57:22;;;;;;;;;;;;;;;20.36;100.00;98605.02;105139;1270;69920;-70
2022/09/10 09:59:48;;;;;;;;;;;;;;;20.33;100.00;98604.23;104978;1273;61306;-70
2022/09/10 10:02:22;;;;;;;;;;;;;;;20.37;100.00;98602.92;105079;1270;61372;-70
2022/09/10 10:04:53;;;;;;;;;;;;;;;20.51;100.00;98598.66;105114;1270;61347;-70
2022/09/10 10:07:26;;;;;;;;;;;;;;;20.56;100.00;98594.39;105109;1270;76346;-70
2022/09/10 10:09:54;;;;;;;;;;;;;;;20.59;100.00;98591.42;105113;1270;69258;-70
2022/09/10 10:12:21;;;;;;;;;;;;;;;20.51;100.00;98591.11;105098;1270;61285;-70
2022/09/10 10:14:47;;;;;;;;;;;;;;;20.47;100.00;98588.48;105127;1270;61252;-70
2022/09/10 10:17:26;;;;;;;;;;;;;;;20.50;100.00;98589.38;105157;1270;61249;-70
2022/09/10 10:19:57;;;;;;;;;;;;;;;20.51;100.00;98588.69;105074;1273;75481;-71
2022/09/10 10:22:29;;;;;;;;;;;;;;;20.59;100.00;98587.40;105268;1270;68736;-70
2022/09/10 10:24:55;;;;;;;;;;;;;;;20.67;100.00;98590.46;105078;1270;72367;-70
2022/09/10 10:27:28;;;;;;;;;;;;;;;20.79;100.00;98586.01;105167;1270;61350;-70
2022/09/10 10:29:57;;;;;;;;;;;;;;;20.79;100.00;98581.36;105168;1270;61214;-70
2022/09/10 10:32:29;;;;;;;;;;;;;;;20.68;100.00;98587.90;105169;1270;76285;-70
2022/09/10 10:35:06;;;;;;;;;;;;;;;20.66;100.00;98586.08;105236;1270;70553;-70
2022/09/10 10:37:51;;;;;;;;;;;;;;;20.66;100.00;98583.53;105247;1270;74271;-70
2022/09/10 10:40:25;;;;;;;;;;;;;;;20.68;100.00;98578.98;105047;1270;61431;-71
2022/09/10 10:42:58;;;;;;;;;;;;;;;20.72;100.00;98576.87;105059;1270;61556;-70
2022/09/10 10:45:48;;;;;;;;;;;;;;;20.78;100.00;98572.39;105041;1270;76896;-71
2022/09/10 10:48:36;;;;;;;;;;;;;;;20.87;100.00;98573.56;105071;1270;70338;-70
2022/09/10 10:51:05;;;;;;;;;;;;;;;20.98;100.00;98573.83;105092;1270;73484;-70
2022/09/10 10:53:48;;;;;;;;;;;;;;;21.19;100.00;98573.34;105163;1270;61278;-71
2022/09/10 10:56:34;;;;;;;;;;;;;;;21.56;100.00;98566.20;105175;1270;61186;-71
2022/09/10 10:59:23;;;;;;;;;;;;;;;21.62;100.00;98564.00;105384;1270;76558;-71
2022/09/10 11:01:53;;;;;;;;;;;;;;;21.82;100.00;98565.13;105156;1270;70782;-71
2022/09/10 11:04:26;;;;;;;;;;;;;;;22.02;100.00;98564.24;105074;1270;73472;-70
2022/09/10 11:07:19;;;;;;;;;;;;;;;22.33;100.00;98566.09;104966;1270;61156;-70
2022/09/10 11:09:51;;;;;;;;;;;;;;;22.65;100.00;98567.58;104474;1278;61198;-71
2022/09/10 11:12:49;;;;;;;;;;;;;;;22.73;100.00;98561.86;104517;1279;76739;-71
2022/09/10 11:15:21;;;;;;;;;;;;;;;22.77;100.00;98563.33;103998;1284;71199;-71
2022/09/10 11:17:53;;;;;;;;;;;;;;;22.71;100.00;98560.13;104015;1284;72366;-72
2022/09/10 11:20:22;;;;;;;;;;;;;;;22.75;100.00;98561.39;104026;1285;61398;-71
2022/09/10 11:22:54;;;;;;;;;;;;;;;22.68;100.00;98559.95;103948;1284;61299;-70
2022/09/10 11:25:21;;;;;;;;;;;;;;;22.61;100.00;98558.63;103960;1284;75491;-71
2022/09/10 11:27:50;;;;;;;;;;;;;;;22.34;100.00;98555.25;104061;1284;70474;-70
2022/09/10 11:30:18;;;;;;;;;;;;;;;22.34;100.00;98553.11;104045;1284;73356;-70
2022/09/10 11:32:49;;;;;;;;;;;;;;;22.48;100.00;98548.18;103912;1287;61532;-71
2022/09/10 11:35:20;;;;;;;;;;;;;;;22.56;100.00;98549.60;103940;1284;61965;-70
2022/09/10 11:37:49;;;;;;;;;;;;;;;22.67;100.00;98545.23;104077;1284;75598;-71
2022/09/10 11:40:19;;;;;;;;;;;;;;;22.66;100.00;98543.92;103969;1284;69545;-71
2022/09/10 11:42:51;;;;;;;;;;;;;;;22.45;100.00;98540.52;103989;1284;74858;-70
2022/09/10 11:45:18;;;;;;;;;;;;;;;22.16;100.00;98537.39;104091;1284;61576;-71
2022/09/10 11:47:56;;;;;;;;;;;;;;;21.93;100.00;98539.24;104303;1279;61302;-71
2022/09/10 11:50:24;;;;;;;;;;;;;;;21.79;100.00;98541.36;104499;1271;73578;-70
2022/09/10 11:52:50;;;;;;;;;;;;;;;21.73;100.00;98543.11;105024;1271;69155;-71
2022/09/10 11:55:18;;;;;;;;;;;;;;;21.66;100.00;98537.66;105053;1271;61360;-72
2022/09/10 11:58:10;;;;;;;;;;;;;;;21.66;100.00;98536.41;104986;1271;61279;-71
2022/09/10 12:00:44;;;;;;;;;;;;;;;21.68;100.00;98534.31;105114;1271;61800;-72
2022/09/10 12:03:30;;;;;;;;;;;;;;;21.64;100.00;98529.91;105114;1271;76377;-71
2022/09/10 12:06:05;;;;;;;;;;;;;;;21.50;100.00;98529.41;105063;1271;70575;-71
2022/09/10 12:08:50;;;;;;;;;;;;;;;21.51;100.00;98525.37;105031;1271;74708;-71
2022/09/10 12:11:35;;;;;;;;;;;;;;;21.50;100.00;98525.85;105053;1271;61230;-71
2022/09/10 12:14:13;;;;;;;;;;;;;;;21.59;100.00;98527.49;104983;1271;61272;-71
2022/09/10 12:16:41;;;;;;;;;;;;;;;21.61;100.00;98525.23;105035;1271;77013;-69
2022/09/10 12:19:18;;;;;;;;;;;;;;;21.57;100.00;98522.50;105012;1271;70660;-71
2022/09/10 12:22:08;;;;;;;;;;;;;;;21.47;100.00;98513.34;105015;1271;72280;-71
2022/09/10 12:24:35;;;;;;;;;;;;;;;21.47;100.00;98513.17;104582;1277;61302;-71
2022/09/10 12:27:03;;;;;;;;;;;;;;;21.46;100.00;98505.15;104564;1277;61187;-72
2022/09/10 12:29:34;;;;;;;;;;;;;;;21.54;100.00;98504.92;104837;1277;76450;-71
2022/09/10 12:32:18;;;;;;;;;;;;;;;21.64;100.00;98504.23;104574;1277;70451;-70
2022/09/10 12:34:49;;;;;;;;;;;;;;;21.85;100.00;98495.55;104524;1278;73870;-70
2022/09/10 12:37:20;;;;;;;;;;;;;;;22.10;100.00;98494.10;104797;1277;61329;-71